Time;durP1;ratioP1;P1;durP2;ratioP2;P2;SDS_P1;SDS_P2;PMS_P1;PMS_P2;Temp;Humidity;BMP_temperature;BMP_pressure;BME280_temperature;BME280_humidity;BME280_pressure;Samples;Min_cycle;Max_cycle;Signal;HPM_P1;HPM_P2
2023/03/30 00:01:34;;;;;;;;;;;17.80;49.20;;;;;;5053381;28;19935;-75
2023/03/30 00:04:01;;;;;;;;;;;17.70;49.30;;;;;;5053412;28;20364;-76
2023/03/30 00:06:27;;;;;;;;;;;17.60;49.20;;;;;;5053453;28;20353;-76
2023/03/30 00:08:57;;;;;;;;;;;17.80;49.30;;;;;;5053282;28;19915;-75
2023/03/30 00:11:24;;;;;;;;;;;17.80;49.30;;;;;;5035577;28;20047;-76
2023/03/30 00:13:50;;;;;;;;;;;17.70;49.10;;;;;;5053103;28;19924;-76
2023/03/30 00:16:16;;;;;;;;;;;17.70;49.00;;;;;;5053640;28;19908;-76
2023/03/30 00:18:43;;;;;;;;;;;17.80;49.10;;;;;;5053125;28;20454;-76
2023/03/30 00:21:10;;;;;;;;;;;17.80;49.20;;;;;;5053308;28;19967;-76
2023/03/30 00:23:37;;;;;;;;;;;17.60;49.10;;;;;;5052995;28;20013;-76
2023/03/30 00:26:03;;;;;;;;;;;17.70;49.30;;;;;;5017931;28;19921;-76
2023/03/30 00:28:32;;;;;;;;;;;17.70;49.40;;;;;;5053176;28;20386;-75
2023/03/30 00:30:58;;;;;;;;;;;17.70;49.40;;;;;;5053397;28;19919;-75
2023/03/30 00:33:24;;;;;;;;;;;17.70;49.50;;;;;;5052909;28;19909;-76
2023/03/30 00:35:54;;;;;;;;;;;17.70;49.40;;;;;;5052996;28;19908;-76
2023/03/30 00:38:20;;;;;;;;;;;17.70;49.30;;;;;;5052966;28;19916;-76
2023/03/30 00:40:54;;;;;;;;;;;17.70;49.20;;;;;;5035252;28;20304;-76
2023/03/30 00:43:20;;;;;;;;;;;17.70;49.10;;;;;;5034965;28;19990;-76
2023/03/30 00:45:46;;;;;;;;;;;17.80;49.00;;;;;;5052613;28;19920;-76
2023/03/30 00:48:20;;;;;;;;;;;17.80;49.00;;;;;;5052883;28;19909;-76
2023/03/30 00:50:52;;;;;;;;;;;17.80;49.00;;;;;;5052495;28;19924;-76
2023/03/30 00:53:26;;;;;;;;;;;17.80;49.00;;;;;;5052569;28;19920;-76
2023/03/30 00:55:53;;;;;;;;;;;17.80;48.90;;;;;;5052667;28;19915;-76
2023/03/30 00:58:20;;;;;;;;;;;17.80;48.90;;;;;;5052557;28;20395;-76
2023/03/30 01:00:46;;;;;;;;;;;17.80;49.00;;;;;;5017306;28;19908;-75
2023/03/30 01:03:21;;;;;;;;;;;17.70;49.10;;;;;;5052262;28;19909;-76
2023/03/30 01:05:47;;;;;;;;;;;17.40;48.90;;;;;;5052369;28;19931;-76
2023/03/30 01:08:15;;;;;;;;;;;17.70;49.20;;;;;;5034560;28;19958;-76
2023/03/30 01:10:42;;;;;;;;;;;17.60;49.10;;;;;;5052038;28;19915;-76
2023/03/30 01:13:08;;;;;;;;;;;17.60;49.20;;;;;;5051313;28;20510;-76
2023/03/30 01:15:37;;;;;;;;;;;17.60;49.40;;;;;;5052154;28;19916;-76
2023/03/30 01:18:07;;;;;;;;;;;17.60;49.50;;;;;;5052277;28;19912;-76
2023/03/30 01:20:52;;;;;;;;;;;17.60;49.50;;;;;;5052289;28;19920;-76
2023/03/30 01:23:26;;;;;;;;;;;17.60;49.70;;;;;;5052137;28;19959;-76
2023/03/30 01:25:55;;;;;;;;;;;17.50;49.70;;;;;;5017809;28;19960;-76
2023/03/30 01:28:29;;;;;;;;;;;17.50;49.70;;;;;;5051829;28;19931;-76
2023/03/30 01:31:04;;;;;;;;;;;17.60;49.80;;;;;;5051917;28;19967;-76
2023/03/30 01:33:47;;;;;;;;;;;17.40;49.70;;;;;;5033805;28;19908;-76
2023/03/30 01:36:31;;;;;;;;;;;17.60;49.90;;;;;;5051706;28;20372;-76
2023/03/30 01:39:15;;;;;;;;;;;17.40;49.80;;;;;;5051920;28;19912;-76
2023/03/30 01:41:44;;;;;;;;;;;17.40;49.80;;;;;;5033908;28;20296;-76
2023/03/30 01:44:16;;;;;;;;;;;17.50;50.00;;;;;;5033757;28;20283;-76
2023/03/30 01:46:55;;;;;;;;;;;17.50;50.00;;;;;;5051672;28;19924;-76
2023/03/30 01:49:25;;;;;;;;;;;17.40;50.00;;;;;;5051698;28;19913;-75
2023/03/30 01:51:57;;;;;;;;;;;17.40;50.00;;;;;;5051681;28;19991;-76
2023/03/30 01:54:28;;;;;;;;;;;17.40;49.90;;;;;;5033542;28;19909;-76
2023/03/30 01:57:01;;;;;;;;;;;17.40;49.80;;;;;;5033874;28;19916;-76
2023/03/30 01:59:27;;;;;;;;;;;17.50;49.80;;;;;;5033573;28;19909;-75
2023/03/30 02:01:59;;;;;;;;;;;17.50;49.70;;;;;;5051728;28;20280;-76
2023/03/30 02:04:25;;;;;;;;;;;17.40;49.50;;;;;;5033754;28;19908;-76
2023/03/30 02:06:57;;;;;;;;;;;17.60;49.50;;;;;;5051176;28;20392;-76
2023/03/30 02:09:25;;;;;;;;;;;17.50;49.50;;;;;;5051317;28;19923;-76
2023/03/30 02:11:52;;;;;;;;;;;17.60;49.40;;;;;;5051254;28;19919;-76
2023/03/30 02:14:21;;;;;;;;;;;17.60;49.20;;;;;;5055693;28;19916;-76
2023/03/30 02:16:48;;;;;;;;;;;17.70;49.20;;;;;;5071669;28;20152;-76
2023/03/30 02:19:15;;;;;;;;;;;17.80;49.10;;;;;;5071422;28;19908;-76
2023/03/30 02:21:42;;;;;;;;;;;17.70;48.90;;;;;;5070051;28;19959;-76
2023/03/30 02:24:16;;;;;;;;;;;17.80;48.90;;;;;;5071272;28;20344;-76
2023/03/30 02:26:46;;;;;;;;;;;17.80;48.90;;;;;;5075414;28;19963;-76
2023/03/30 02:29:13;;;;;;;;;;;17.70;48.80;;;;;;5075609;28;19963;-76
2023/03/30 02:31:40;;;;;;;;;;;17.90;48.90;;;;;;5075510;28;19908;-76
2023/03/30 02:34:25;;;;;;;;;;;17.80;48.70;;;;;;5039750;28;19934;-76
2023/03/30 02:36:51;;;;;;;;;;;17.80;48.50;;;;;;5073979;28;19912;-75
2023/03/30 02:39:23;;;;;;;;;;;17.90;48.60;;;;;;5073951;28;20022;-76
2023/03/30 02:42:00;;;;;;;;;;;18.00;48.40;;;;;;5073997;28;19958;-76
2023/03/30 02:44:29;;;;;;;;;;;17.90;48.40;;;;;;5073797;28;19965;-75
2023/03/30 02:47:27;;;;;;;;;;;17.90;48.30;;;;;;5073641;28;19946;-76
2023/03/30 02:49:56;;;;;;;;;;;17.90;48.30;;;;;;4993376;28;19992;-76
2023/03/30 02:52:25;;;;;;;;;;;18.00;48.20;;;;;;4977081;28;19913;-76
2023/03/30 02:55:00;;;;;;;;;;;17.90;48.10;;;;;;4976827;28;19977;-76
2023/03/30 02:57:49;;;;;;;;;;;17.90;48.10;;;;;;4993190;28;19910;-76
2023/03/30 03:00:49;;;;;;;;;;;17.80;48.00;;;;;;4935019;29;19918;-76
2023/03/30 03:03:34;;;;;;;;;;;17.90;48.00;;;;;;4935080;29;19922;-76
2023/03/30 03:06:01;;;;;;;;;;;17.90;48.00;;;;;;4934944;29;19926;-76
2023/03/30 03:08:36;;;;;;;;;;;17.90;47.90;;;;;;4935662;29;19922;-76
2023/03/30 03:11:04;;;;;;;;;;;17.90;48.00;;;;;;4934829;29;19914;-76
2023/03/30 03:13:30;;;;;;;;;;;17.90;48.10;;;;;;4935244;29;19942;-76
2023/03/30 03:15:56;;;;;;;;;;;17.80;48.10;;;;;;4934657;29;20089;-76
2023/03/30 03:18:25;;;;;;;;;;;17.70;48.10;;;;;;4934918;29;20398;-76
2023/03/30 03:20:51;;;;;;;;;;;17.80;48.20;;;;;;4934862;29;19918;-76
2023/03/30 03:23:19;;;;;;;;;;;17.80;48.20;;;;;;4934557;29;19915;-76
2023/03/30 03:25:50;;;;;;;;;;;17.80;48.20;;;;;;4952338;28;19918;-76
2023/03/30 03:28:18;;;;;;;;;;;17.70;48.10;;;;;;4957005;28;20033;-76
2023/03/30 03:30:50;;;;;;;;;;;17.70;47.90;;;;;;4956856;28;20370;-76
2023/03/30 03:33:21;;;;;;;;;;;17.80;47.80;;;;;;4956973;28;19933;-76
2023/03/30 03:36:16;;;;;;;;;;;17.80;47.80;;;;;;4939474;28;20063;-76
2023/03/30 03:38:49;;;;;;;;;;;18.00;47.70;;;;;;4956604;28;19918;-76
2023/03/30 03:41:16;;;;;;;;;;;18.00;47.40;;;;;;4972909;28;20378;-76
2023/03/30 03:43:42;;;;;;;;;;;18.00;47.30;;;;;;4956644;28;19960;-76
2023/03/30 03:46:08;;;;;;;;;;;18.00;47.30;;;;;;4972495;28;19922;-76
2023/03/30 03:48:34;;;;;;;;;;;18.10;47.30;;;;;;4972871;28;20403;-76
2023/03/30 03:51:00;;;;;;;;;;;18.10;47.20;;;;;;4956618;28;19969;-76
2023/03/30 03:53:30;;;;;;;;;;;18.00;47.10;;;;;;4956293;28;19920;-76
2023/03/30 03:56:01;;;;;;;;;;;17.90;47.40;;;;;;4975634;28;20429;-76
2023/03/30 03:58:27;;;;;;;;;;;17.80;47.60;;;;;;4975914;28;19930;-76
2023/03/30 04:00:59;;;;;;;;;;;17.70;47.80;;;;;;4991956;28;19909;-76
2023/03/30 04:03:25;;;;;;;;;;;17.70;47.90;;;;;;4991927;28;20282;-76
2023/03/30 04:05:53;;;;;;;;;;;17.60;48.00;;;;;;4994321;28;19917;-75
2023/03/30 04:08:20;;;;;;;;;;;17.60;48.00;;;;;;4975836;28;19945;-75
2023/03/30 04:10:46;;;;;;;;;;;17.60;48.10;;;;;;4975442;28;19916;-76
2023/03/30 04:13:17;;;;;;;;;;;17.50;48.20;;;;;;5049440;28;19921;-76
2023/03/30 04:15:43;;;;;;;;;;;17.60;48.10;;;;;;5035717;28;20304;-76
2023/03/30 04:18:32;;;;;;;;;;;17.60;48.20;;;;;;5053354;28;20003;-76
2023/03/30 04:21:28;;;;;;;;;;;17.40;48.10;;;;;;5035342;28;19916;-76
2023/03/30 04:24:10;;;;;;;;;;;17.50;48.20;;;;;;5052947;28;19916;-76
2023/03/30 04:26:56;;;;;;;;;;;17.60;48.10;;;;;;5053325;28;19920;-76
2023/03/30 04:29:57;;;;;;;;;;;17.60;48.00;;;;;;4991177;28;19913;-76
2023/03/30 04:32:38;;;;;;;;;;;17.60;47.80;;;;;;4991465;28;19963;-76
2023/03/30 04:35:10;;;;;;;;;;;17.70;47.70;;;;;;4974918;28;20271;-76
2023/03/30 04:37:53;;;;;;;;;;;17.60;47.40;;;;;;4974962;28;19910;-76
2023/03/30 04:40:38;;;;;;;;;;;17.70;47.50;;;;;;4991203;28;19917;-76
2023/03/30 04:43:27;;;;;;;;;;;17.60;47.50;;;;;;4952390;28;19914;-75
2023/03/30 04:46:22;;;;;;;;;;;17.70;47.60;;;;;;4914018;29;19961;-76
2023/03/30 04:49:23;;;;;;;;;;;17.70;47.50;;;;;;4932340;29;19922;-75
2023/03/30 04:51:50;;;;;;;;;;;17.70;47.50;;;;;;4933000;29;20406;-76
2023/03/30 04:54:48;;;;;;;;;;;17.60;47.20;;;;;;4894883;29;19918;-75
2023/03/30 04:57:32;;;;;;;;;;;17.80;47.30;;;;;;4895295;29;20006;-76
2023/03/30 05:00:08;;;;;;;;;;;17.80;47.10;;;;;;4894961;29;19974;-76
2023/03/30 05:02:40;;;;;;;;;;;17.90;47.10;;;;;;4880261;29;19912;-75
2023/03/30 05:05:28;;;;;;;;;;;17.80;46.90;;;;;;4903685;29;20434;-76
2023/03/30 05:08:14;;;;;;;;;;;17.90;47.00;;;;;;4878821;29;20351;-76
2023/03/30 05:11:03;;;;;;;;;;;17.80;47.10;;;;;;4894570;29;19916;-76
2023/03/30 05:13:51;;;;;;;;;;;17.90;47.30;;;;;;4894549;29;20441;-76
2023/03/30 05:16:37;;;;;;;;;;;17.80;47.30;;;;;;4860380;29;19919;-76
2023/03/30 05:19:22;;;;;;;;;;;17.90;47.40;;;;;;4875590;29;19912;-76
2023/03/30 05:22:11;;;;;;;;;;;17.80;47.20;;;;;;4843255;29;19997;-76
2023/03/30 05:25:00;;;;;;;;;;;17.70;47.20;;;;;;4897422;29;19918;-76
2023/03/30 05:27:42;;;;;;;;;;;17.80;47.20;;;;;;4913416;29;20288;-76
2023/03/30 05:30:16;;;;;;;;;;;17.70;47.30;;;;;;4905336;29;19994;-76
2023/03/30 05:33:08;;;;;;;;;;;17.70;47.30;;;;;;4913287;29;19984;-76
2023/03/30 05:35:53;;;;;;;;;;;17.70;47.30;;;;;;4910795;29;19911;-76
2023/03/30 05:38:42;;;;;;;;;;;17.80;47.30;;;;;;4894150;29;20287;-76
2023/03/30 05:41:21;;;;;;;;;;;17.80;47.30;;;;;;4894425;29;19911;-76
2023/03/30 05:43:50;;;;;;;;;;;17.70;47.20;;;;;;4894260;29;20396;-76
2023/03/30 05:46:28;;;;;;;;;;;17.80;47.10;;;;;;4893860;29;20377;-76
2023/03/30 05:49:18;;;;;;;;;;;17.80;47.00;;;;;;4913104;29;20283;-76
2023/03/30 05:52:10;;;;;;;;;;;17.90;47.00;;;;;;4910466;29;20375;-76
2023/03/30 05:54:54;;;;;;;;;;;17.80;46.80;;;;;;4894441;29;20256;-75
2023/03/30 05:57:32;;;;;;;;;;;17.80;46.80;;;;;;4878500;29;20063;-76
2023/03/30 06:00:24;;;;;;;;;;;17.90;47.00;;;;;;4820492;29;20003;-76
2023/03/30 06:03:04;;;;;;;;;;;17.80;47.00;;;;;;4838300;29;20031;-75
2023/03/30 06:05:37;;;;;;;;;;;17.80;47.00;;;;;;4838082;29;19912;-76
2023/03/30 06:08:04;;;;;;;;;;;17.80;46.90;;;;;;4838483;29;19916;-76
2023/03/30 06:10:30;;;;;;;;;;;17.80;47.00;;;;;;4850581;29;19912;-76
2023/03/30 06:12:56;;;;;;;;;;;17.80;46.90;;;;;;4873469;29;19923;-76
2023/03/30 06:15:29;;;;;;;;;;;17.90;46.90;;;;;;4898163;29;20348;-76
2023/03/30 06:18:05;;;;;;;;;;;17.90;46.90;;;;;;4909921;29;20419;-76
2023/03/30 06:20:34;;;;;;;;;;;17.90;46.70;;;;;;4909701;29;19911;-75
2023/03/30 06:23:00;;;;;;;;;;;17.90;46.60;;;;;;4909886;29;19973;-76
2023/03/30 06:25:28;;;;;;;;;;;18.00;46.50;;;;;;4919925;28;19925;-76
2023/03/30 06:27:54;;;;;;;;;;;18.00;46.30;;;;;;4970048;28;19924;-76
2023/03/30 06:30:21;;;;;;;;;;;18.20;46.20;;;;;;4970262;28;19922;-76
2023/03/30 06:32:51;;;;;;;;;;;18.20;46.10;;;;;;4970209;28;19953;-76
2023/03/30 06:35:25;;;;;;;;;;;18.40;45.90;;;;;;4992500;28;19910;-76
2023/03/30 06:37:52;;;;;;;;;;;18.40;45.50;;;;;;5023654;28;19915;-76
2023/03/30 06:40:19;;;;;;;;;;;18.40;45.30;;;;;;5033401;28;19955;-76
2023/03/30 06:42:47;;;;;;;;;;;18.30;45.30;;;;;;5033182;28;20364;-76
2023/03/30 06:45:22;;;;;;;;;;;18.40;45.60;;;;;;5033267;28;19908;-75
2023/03/30 06:47:48;;;;;;;;;;;18.40;45.70;;;;;;5033309;28;19916;-75
2023/03/30 06:50:15;;;;;;;;;;;18.30;45.20;;;;;;5008768;28;19916;-76
2023/03/30 06:52:52;;;;;;;;;;;18.40;45.60;;;;;;4992483;28;20356;-76
2023/03/30 06:55:20;;;;;;;;;;;18.30;45.70;;;;;;5008502;28;19917;-76
2023/03/30 06:57:46;;;;;;;;;;;18.30;45.80;;;;;;4992697;28;19909;-76
2023/03/30 07:00:13;;;;;;;;;;;18.40;45.00;;;;;;4976482;28;20276;-76
2023/03/30 07:02:40;;;;;;;;;;;18.50;45.40;;;;;;5008991;28;19932;-76
2023/03/30 07:05:27;;;;;;;;;;;18.30;45.50;;;;;;4992406;28;20028;-75
2023/03/30 07:07:53;;;;;;;;;;;18.30;45.60;;;;;;4992276;28;19964;-75
2023/03/30 07:10:20;;;;;;;;;;;18.50;45.50;;;;;;4992367;28;19909;-75
2023/03/30 07:12:47;;;;;;;;;;;18.50;45.60;;;;;;4995281;28;20326;-75
2023/03/30 07:15:14;;;;;;;;;;;18.30;45.60;;;;;;5015678;28;19913;-75
2023/03/30 07:17:40;;;;;;;;;;;18.30;45.70;;;;;;5015736;28;19920;-76
2023/03/30 07:20:07;;;;;;;;;;;18.50;45.50;;;;;;5032422;28;20284;-75
2023/03/30 07:22:42;;;;;;;;;;;18.40;45.20;;;;;;5051937;28;19909;-76
2023/03/30 07:25:08;;;;;;;;;;;18.50;45.50;;;;;;5034924;28;20368;-75
2023/03/30 07:27:35;;;;;;;;;;;18.50;45.20;;;;;;5051885;28;19917;-76
2023/03/30 07:30:02;;;;;;;;;;;18.40;45.50;;;;;;5035039;28;19913;-76
2023/03/30 07:32:28;;;;;;;;;;;18.40;45.50;;;;;;5043262;28;19912;-76
2023/03/30 07:34:54;;;;;;;;;;;18.50;45.50;;;;;;5039530;28;19910;-76
2023/03/30 07:37:20;;;;;;;;;;;18.60;45.30;;;;;;5056071;28;20315;-75
2023/03/30 07:39:46;;;;;;;;;;;18.50;45.10;;;;;;5073986;28;19939;-76
2023/03/30 07:42:12;;;;;;;;;;;18.50;45.10;;;;;;5056210;28;19908;-76
2023/03/30 07:44:38;;;;;;;;;;;18.60;45.20;;;;;;5056194;28;20402;-76
2023/03/30 07:47:07;;;;;;;;;;;18.70;45.10;;;;;;5056380;28;19956;-75
2023/03/30 07:49:35;;;;;;;;;;;18.80;44.90;;;;;;5056388;28;19962;-76
2023/03/30 07:52:01;;;;;;;;;;;18.60;44.80;;;;;;5073918;28;19947;-76
2023/03/30 07:54:35;;;;;;;;;;;18.70;45.00;;;;;;5055963;28;19912;-76
2023/03/30 07:57:15;;;;;;;;;;;18.80;44.90;;;;;;5055518;28;19915;-76
2023/03/30 07:59:41;;;;;;;;;;;18.90;44.90;;;;;;5055852;28;19908;-76
2023/03/30 08:02:27;;;;;;;;;;;18.80;44.80;;;;;;4972392;28;20377;-76
2023/03/30 08:04:54;;;;;;;;;;;18.90;44.60;;;;;;4956266;28;19910;-75
2023/03/30 08:07:28;;;;;;;;;;;18.90;44.80;;;;;;4972133;28;19918;-76
2023/03/30 08:10:02;;;;;;;;;;;18.90;44.80;;;;;;4956535;28;20000;-75
2023/03/30 08:12:28;;;;;;;;;;;18.90;44.60;;;;;;4952838;29;19914;-75
2023/03/30 08:14:54;;;;;;;;;;;18.90;44.70;;;;;;4952874;29;19934;-76
2023/03/30 08:17:20;;;;;;;;;;;18.90;44.80;;;;;;4952666;29;19911;-76
2023/03/30 08:19:46;;;;;;;;;;;18.90;44.90;;;;;;4952879;29;19941;-76
2023/03/30 08:22:12;;;;;;;;;;;18.80;44.70;;;;;;4952563;28;20358;-76
2023/03/30 08:24:37;;;;;;;;;;;18.90;44.70;;;;;;4952657;29;20437;-76
2023/03/30 08:27:03;;;;;;;;;;;18.80;44.90;;;;;;4952406;29;20394;-76
2023/03/30 08:29:30;;;;;;;;;;;18.90;45.00;;;;;;4952796;29;20338;-75
2023/03/30 08:31:56;;;;;;;;;;;18.80;44.70;;;;;;4952590;29;19964;-75
2023/03/30 08:34:22;;;;;;;;;;;18.80;44.10;;;;;;4952615;29;19914;-76
2023/03/30 08:36:48;;;;;;;;;;;18.80;44.60;;;;;;4952382;29;20291;-75
2023/03/30 08:39:14;;;;;;;;;;;18.80;42.80;;;;;;4988808;28;20311;-76
2023/03/30 08:41:42;;;;;;;;;;;18.80;44.10;;;;;;5050473;28;19954;-76
2023/03/30 08:44:08;;;;;;;;;;;18.70;44.60;;;;;;5067765;28;19936;-76
2023/03/30 08:46:34;;;;;;;;;;;18.80;44.10;;;;;;5072840;28;19920;-76
2023/03/30 08:49:03;;;;;;;;;;;18.80;44.90;;;;;;5072774;28;19919;-75
2023/03/30 08:51:32;;;;;;;;;;;18.90;45.20;;;;;;5072758;28;19924;-75
2023/03/30 08:54:00;;;;;;;;;;;18.90;44.90;;;;;;5072508;28;19958;-76
2023/03/30 08:56:28;;;;;;;;;;;18.90;43.40;;;;;;5054592;28;20010;-76
2023/03/30 08:59:16;;;;;;;;;;;18.80;44.40;;;;;;5072493;28;19908;-75
2023/03/30 09:01:42;;;;;;;;;;;18.80;45.20;;;;;;5072627;28;19908;-76
2023/03/30 09:04:15;;;;;;;;;;;18.70;43.10;;;;;;5072330;28;19965;-76
2023/03/30 09:06:44;;;;;;;;;;;18.80;45.20;;;;;;5072212;28;19916;-76
2023/03/30 09:09:11;;;;;;;;;;;18.70;42.90;;;;;;5072377;28;19909;-76
2023/03/30 09:11:37;;;;;;;;;;;18.80;45.00;;;;;;5072354;28;19971;-76
2023/03/30 09:14:05;;;;;;;;;;;18.80;45.10;;;;;;5061607;28;19921;-76
2023/03/30 09:16:37;;;;;;;;;;;18.80;45.20;;;;;;5052161;28;20252;-76
2023/03/30 09:19:05;;;;;;;;;;;18.80;45.30;;;;;;5051928;28;19963;-75
2023/03/30 09:21:30;;;;;;;;;;;19.00;45.20;;;;;;5009822;28;20406;-76
2023/03/30 09:23:58;;;;;;;;;;;18.90;45.20;;;;;;5010072;28;20037;-76
2023/03/30 09:26:27;;;;;;;;;;;19.00;45.20;;;;;;5009786;28;19921;-76
2023/03/30 09:29:05;;;;;;;;;;;19.20;45.20;;;;;;5009927;28;19909;-76
2023/03/30 09:31:43;;;;;;;;;;;19.20;44.70;;;;;;4993536;28;20289;-75
2023/03/30 09:34:26;;;;;;;;;;;19.00;42.60;;;;;;5009249;28;20047;-75
2023/03/30 09:36:56;;;;;;;;;;;19.00;44.90;;;;;;5009538;28;20333;-76
2023/03/30 09:39:26;;;;;;;;;;;19.10;45.10;;;;;;5009648;28;19909;-76
2023/03/30 09:42:01;;;;;;;;;;;19.20;45.00;;;;;;5009680;28;19909;-76
2023/03/30 09:44:45;;;;;;;;;;;19.10;44.80;;;;;;5009585;28;19956;-75
2023/03/30 09:47:35;;;;;;;;;;;19.10;44.70;;;;;;4993075;28;19988;-76
2023/03/30 09:50:06;;;;;;;;;;;19.10;44.70;;;;;;4919305;29;20010;-75
2023/03/30 09:52:36;;;;;;;;;;;19.20;45.20;;;;;;4960751;28;19918;-76
2023/03/30 09:55:17;;;;;;;;;;;19.10;44.70;;;;;;4970403;28;19946;-76
2023/03/30 09:57:43;;;;;;;;;;;19.20;45.20;;;;;;4970325;28;20488;-76
2023/03/30 10:00:23;;;;;;;;;;;19.10;44.60;;;;;;4970454;28;19917;-75
2023/03/30 10:02:56;;;;;;;;;;;19.10;45.30;;;;;;4970250;28;19975;-76
2023/03/30 10:05:22;;;;;;;;;;;19.20;44.40;;;;;;4970540;28;19917;-76
2023/03/30 10:07:55;;;;;;;;;;;19.10;44.10;;;;;;4970178;28;20406;-75
2023/03/30 10:10:21;;;;;;;;;;;19.10;45.90;;;;;;4970233;28;19910;-76
2023/03/30 10:12:48;;;;;;;;;;;19.20;45.60;;;;;;4970334;28;19921;-75
2023/03/30 10:15:17;;;;;;;;;;;19.20;45.00;;;;;;4989420;28;20274;-76
2023/03/30 10:17:45;;;;;;;;;;;19.30;45.10;;;;;;4989467;28;20029;-76
2023/03/30 10:20:17;;;;;;;;;;;19.10;45.50;;;;;;4989586;28;19914;-75
2023/03/30 10:22:53;;;;;;;;;;;19.10;45.40;;;;;;4989617;28;19960;-76
2023/03/30 10:25:26;;;;;;;;;;;19.10;45.10;;;;;;4989581;28;19960;-75
2023/03/30 10:27:54;;;;;;;;;;;19.20;45.60;;;;;;5041903;28;19921;-76
2023/03/30 10:30:23;;;;;;;;;;;19.10;44.40;;;;;;5051301;28;19913;-76
2023/03/30 10:32:50;;;;;;;;;;;19.20;45.00;;;;;;5051332;28;20323;-77
2023/03/30 10:35:18;;;;;;;;;;;19.00;45.20;;;;;;5051139;28;19935;-76
2023/03/30 10:37:45;;;;;;;;;;;19.10;46.30;;;;;;5051085;28;20325;-76
2023/03/30 10:40:16;;;;;;;;;;;19.10;43.60;;;;;;5050919;28;19919;-76
2023/03/30 10:42:43;;;;;;;;;;;19.00;45.90;;;;;;5051251;28;19963;-75
2023/03/30 10:45:18;;;;;;;;;;;19.10;46.10;;;;;;5051207;28;19908;-76
2023/03/30 10:48:02;;;;;;;;;;;19.20;46.00;;;;;;5053288;28;19916;-76
2023/03/30 10:50:40;;;;;;;;;;;19.20;45.90;;;;;;5054856;28;19908;-76
2023/03/30 10:53:14;;;;;;;;;;;19.20;45.80;;;;;;5054910;28;20319;-76
2023/03/30 10:55:43;;;;;;;;;;;19.30;45.90;;;;;;5054800;28;20392;-76
2023/03/30 10:58:12;;;;;;;;;;;19.40;45.90;;;;;;5054801;28;19924;-76
2023/03/30 11:00:48;;;;;;;;;;;19.30;45.90;;;;;;5054720;28;19958;-76
2023/03/30 11:03:21;;;;;;;;;;;19.50;45.80;;;;;;5054793;28;19913;-76
2023/03/30 11:05:51;;;;;;;;;;;19.30;45.40;;;;;;5054557;28;19917;-76
2023/03/30 11:08:19;;;;;;;;;;;19.30;43.40;;;;;;5054718;28;19916;-75
2023/03/30 11:10:51;;;;;;;;;;;19.20;45.40;;;;;;5054577;28;19916;-76
2023/03/30 11:13:23;;;;;;;;;;;19.20;43.90;;;;;;5054463;28;20469;-76
2023/03/30 11:16:09;;;;;;;;;;;19.20;46.00;;;;;;5054366;28;19916;-76
2023/03/30 11:18:47;;;;;;;;;;;19.30;46.10;;;;;;5053879;28;19912;-76
2023/03/30 11:21:22;;;;;;;;;;;19.30;46.30;;;;;;5054319;28;19908;-76
2023/03/30 11:23:55;;;;;;;;;;;19.30;46.20;;;;;;5054259;28;19919;-76
2023/03/30 11:26:38;;;;;;;;;;;19.30;46.10;;;;;;5054402;28;19927;-76
2023/03/30 11:29:23;;;;;;;;;;;19.20;46.30;;;;;;5036433;28;19913;-76
2023/03/30 11:31:55;;;;;;;;;;;19.30;46.30;;;;;;5054160;28;19909;-76
2023/03/30 11:34:27;;;;;;;;;;;19.30;46.40;;;;;;5036105;28;20393;-76
2023/03/30 11:36:56;;;;;;;;;;;19.30;46.30;;;;;;5036078;28;20316;-76
2023/03/30 11:39:26;;;;;;;;;;;19.30;46.30;;;;;;5054196;28;19915;-76
2023/03/30 11:42:11;;;;;;;;;;;19.30;46.20;;;;;;5054240;28;19915;-76
2023/03/30 11:44:37;;;;;;;;;;;19.40;46.30;;;;;;5054047;28;19983;-76
2023/03/30 11:47:13;;;;;;;;;;;19.20;46.30;;;;;;5053673;28;19920;-76
2023/03/30 11:49:40;;;;;;;;;;;19.30;46.30;;;;;;5036290;28;19908;-76
2023/03/30 11:52:06;;;;;;;;;;;19.30;46.20;;;;;;5053830;28;19952;-76
2023/03/30 11:54:50;;;;;;;;;;;19.40;46.10;;;;;;5053579;28;19958;-76
2023/03/30 11:57:28;;;;;;;;;;;19.40;46.10;;;;;;5052919;28;19932;-76
2023/03/30 12:00:08;;;;;;;;;;;19.40;46.10;;;;;;5053761;28;19916;-76
2023/03/30 12:02:40;;;;;;;;;;;19.40;46.10;;;;;;5053428;28;19931;-76
2023/03/30 12:05:15;;;;;;;;;;;19.40;46.00;;;;;;5053495;28;19908;-76
2023/03/30 12:08:00;;;;;;;;;;;19.40;46.10;;;;;;5053116;28;19917;-76
2023/03/30 12:10:28;;;;;;;;;;;19.40;46.00;;;;;;5053550;28;19985;-76
2023/03/30 12:12:55;;;;;;;;;;;19.40;46.20;;;;;;5053335;28;19966;-76
2023/03/30 12:15:25;;;;;;;;;;;19.40;46.30;;;;;;5035657;28;19912;-76
2023/03/30 12:17:57;;;;;;;;;;;19.30;46.40;;;;;;5053089;28;19996;-76
2023/03/30 12:20:41;;;;;;;;;;;19.40;46.30;;;;;;5053190;28;19908;-76
2023/03/30 12:23:16;;;;;;;;;;;19.40;46.30;;;;;;5053189;28;19909;-76
2023/03/30 12:25:41;;;;;;;;;;;19.40;45.80;;;;;;5053236;28;19909;-76
2023/03/30 12:28:12;;;;;;;;;;;19.30;46.30;;;;;;5052722;28;20826;-76
2023/03/30 12:30:42;;;;;;;;;;;19.40;46.30;;;;;;5053052;28;20294;-76
2023/03/30 12:33:17;;;;;;;;;;;19.40;46.40;;;;;;5053317;28;20330;-76
2023/03/30 12:35:56;;;;;;;;;;;19.40;46.30;;;;;;5053167;28;20355;-76
2023/03/30 12:38:24;;;;;;;;;;;19.40;46.20;;;;;;5052733;28;19908;-76
2023/03/30 12:41:00;;;;;;;;;;;19.50;46.20;;;;;;5052947;28;19915;-76
2023/03/30 12:43:26;;;;;;;;;;;19.40;46.30;;;;;;5052511;28;19975;-76
2023/03/30 12:46:01;;;;;;;;;;;19.50;46.50;;;;;;5052719;28;20384;-76
2023/03/30 12:48:45;;;;;;;;;;;19.50;46.40;;;;;;5052690;28;19912;-76
2023/03/30 12:51:23;;;;;;;;;;;19.50;46.30;;;;;;5052796;28;19908;-75
2023/03/30 12:53:49;;;;;;;;;;;19.50;46.30;;;;;;5052580;28;19908;-76
2023/03/30 12:56:21;;;;;;;;;;;19.60;46.20;;;;;;5034779;28;19999;-75
2023/03/30 12:58:50;;;;;;;;;;;19.70;46.30;;;;;;5052618;28;20003;-76
2023/03/30 13:01:16;;;;;;;;;;;19.50;46.20;;;;;;5034926;28;19976;-76
2023/03/30 13:03:48;;;;;;;;;;;19.50;46.10;;;;;;5034413;28;19979;-75
2023/03/30 13:06:29;;;;;;;;;;;19.60;46.10;;;;;;5052191;28;19932;-76
2023/03/30 13:09:01;;;;;;;;;;;19.60;46.10;;;;;;5051851;28;19909;-76
2023/03/30 13:11:41;;;;;;;;;;;19.40;46.00;;;;;;5052079;28;19912;-76
2023/03/30 13:14:25;;;;;;;;;;;19.40;46.00;;;;;;5019109;28;19927;-76
2023/03/30 13:16:51;;;;;;;;;;;19.30;46.10;;;;;;5072088;28;19917;-76
2023/03/30 13:19:25;;;;;;;;;;;19.50;46.20;;;;;;5071937;28;20419;-76
2023/03/30 13:22:14;;;;;;;;;;;19.50;46.30;;;;;;5072000;28;19924;-76
2023/03/30 13:24:40;;;;;;;;;;;19.50;46.30;;;;;;4990492;28;19910;-76
2023/03/30 13:27:19;;;;;;;;;;;19.60;46.30;;;;;;4990125;28;20389;-76
2023/03/30 13:29:51;;;;;;;;;;;19.40;46.20;;;;;;4974282;28;19988;-76
2023/03/30 13:32:21;;;;;;;;;;;19.60;46.40;;;;;;4990157;28;20289;-76
2023/03/30 13:34:56;;;;;;;;;;;19.40;46.40;;;;;;4990091;28;19909;-76
2023/03/30 13:37:22;;;;;;;;;;;19.50;46.40;;;;;;4989853;28;19929;-76
2023/03/30 13:39:48;;;;;;;;;;;19.50;46.40;;;;;;4990202;28;19972;-76
2023/03/30 13:42:23;;;;;;;;;;;19.40;46.10;;;;;;4973793;28;20398;-76
2023/03/30 13:45:07;;;;;;;;;;;19.40;46.40;;;;;;4990144;28;19917;-76
2023/03/30 13:47:42;;;;;;;;;;;19.40;46.60;;;;;;4989965;28;19947;-75
2023/03/30 13:50:14;;;;;;;;;;;19.30;46.70;;;;;;4989931;28;19933;-76
2023/03/30 13:52:41;;;;;;;;;;;19.50;46.80;;;;;;4990089;28;19924;-76
2023/03/30 13:55:19;;;;;;;;;;;19.40;46.10;;;;;;4973692;28;19914;-76
2023/03/30 13:57:45;;;;;;;;;;;19.40;46.70;;;;;;4989778;28;19916;-76
2023/03/30 14:00:32;;;;;;;;;;;19.40;46.70;;;;;;4990036;28;19913;-76
2023/03/30 14:03:14;;;;;;;;;;;19.50;46.80;;;;;;5071623;28;19999;-76
2023/03/30 14:05:41;;;;;;;;;;;19.40;46.70;;;;;;5071427;28;19981;-76
2023/03/30 14:08:09;;;;;;;;;;;19.40;46.70;;;;;;5071162;28;19920;-76
2023/03/30 14:10:35;;;;;;;;;;;19.40;46.70;;;;;;5071492;28;19916;-76
2023/03/30 14:13:01;;;;;;;;;;;19.40;46.70;;;;;;5050384;28;20394;-76
2023/03/30 14:15:32;;;;;;;;;;;19.40;46.70;;;;;;5051467;28;19913;-76
2023/03/30 14:17:59;;;;;;;;;;;19.50;46.70;;;;;;5051379;28;19920;-75
2023/03/30 14:20:25;;;;;;;;;;;19.50;46.70;;;;;;5051920;28;19956;-76
2023/03/30 14:22:53;;;;;;;;;;;19.50;46.60;;;;;;5055570;28;19944;-76
2023/03/30 14:25:25;;;;;;;;;;;19.60;46.60;;;;;;5055250;28;19908;-75
2023/03/30 14:27:51;;;;;;;;;;;19.60;46.60;;;;;;5055215;28;19938;-76
2023/03/30 14:30:18;;;;;;;;;;;19.50;46.60;;;;;;5055309;28;20236;-76
2023/03/30 14:32:44;;;;;;;;;;;19.40;46.50;;;;;;5055182;28;19909;-76
2023/03/30 14:35:14;;;;;;;;;;;19.50;46.50;;;;;;5055328;28;19973;-76
2023/03/30 14:37:41;;;;;;;;;;;19.50;46.50;;;;;;5055193;28;20356;-76
2023/03/30 14:40:15;;;;;;;;;;;19.40;46.40;;;;;;5055025;28;20015;-76
2023/03/30 14:42:41;;;;;;;;;;;19.40;46.60;;;;;;5055429;28;20697;-76
2023/03/30 14:45:08;;;;;;;;;;;19.40;46.70;;;;;;5055120;28;19966;-76
2023/03/30 14:47:36;;;;;;;;;;;19.50;46.90;;;;;;5055086;28;19920;-76